createdAt,value
2018-03-11T00:02:11.345Z,11.97
2018-03-11T00:04:39.493Z,11.97
2018-03-11T00:07:07.341Z,11.95
2018-03-11T00:09:34.994Z,11.95
2018-03-11T00:12:02.556Z,11.95
2018-03-11T00:14:30.127Z,11.95
2018-03-11T00:16:57.802Z,11.94
2018-03-11T00:19:25.386Z,11.94
2018-03-11T00:21:52.946Z,11.94
2018-03-11T00:24:20.564Z,11.94
2018-03-11T00:26:48.193Z,11.94
2018-03-11T00:29:15.788Z,11.93
2018-03-11T00:31:43.348Z,11.92
2018-03-11T00:34:10.956Z,11.91
2018-03-11T00:36:38.592Z,11.90
2018-03-11T00:39:06.188Z,11.88
2018-03-11T00:41:33.763Z,11.86
2018-03-11T00:44:01.376Z,11.85
2018-03-11T00:46:28.972Z,11.83
2018-03-11T00:48:56.548Z,11.83
2018-03-11T00:51:24.161Z,11.82
2018-03-11T00:53:51.766Z,11.80
2018-03-11T00:56:19.771Z,11.80
2018-03-11T00:58:47.369Z,11.80
2018-03-11T01:01:14.951Z,11.76
2018-03-11T01:03:42.573Z,11.75
2018-03-11T01:06:10.157Z,11.70
2018-03-11T01:08:37.721Z,11.69
2018-03-11T01:11:05.363Z,11.67
2018-03-11T01:13:32.962Z,11.64
2018-03-11T01:16:00.544Z,11.62
2018-03-11T01:18:28.131Z,11.58
2018-03-11T01:20:55.686Z,11.56
2018-03-11T01:23:23.304Z,11.55
2018-03-11T01:25:50.940Z,11.53
2018-03-11T01:28:18.613Z,11.52
2018-03-11T01:30:46.199Z,11.50
2018-03-11T01:33:13.787Z,11.49
2018-03-11T01:35:41.396Z,11.47
2018-03-11T01:38:08.958Z,11.46
2018-03-11T01:40:36.567Z,11.47
2018-03-11T01:43:04.130Z,11.45
2018-03-11T01:45:31.732Z,11.45
2018-03-11T01:47:59.374Z,11.43
2018-03-11T01:50:26.960Z,11.42
2018-03-11T01:53:06.481Z,11.42
2018-03-11T01:55:34.025Z,11.42
2018-03-11T01:58:01.595Z,11.39
2018-03-11T02:00:29.423Z,11.38
2018-03-11T02:02:57.070Z,11.39
2018-03-11T02:05:24.667Z,11.38
2018-03-11T02:07:52.272Z,11.37
2018-03-11T02:10:19.877Z,11.36
2018-03-11T02:12:47.469Z,11.36
2018-03-11T02:15:15.124Z,11.34
2018-03-11T02:17:42.771Z,11.35
2018-03-11T02:20:10.348Z,11.32
2018-03-11T02:22:37.974Z,11.31
2018-03-11T02:25:05.676Z,11.29
2018-03-11T02:27:33.257Z,11.28
2018-03-11T02:30:00.893Z,11.26
2018-03-11T02:32:28.693Z,11.23
2018-03-11T02:34:56.253Z,11.22
2018-03-11T02:37:23.881Z,11.20
2018-03-11T02:39:51.457Z,11.17
2018-03-11T02:42:19.018Z,11.15
2018-03-11T02:44:46.641Z,11.14
2018-03-11T02:47:14.216Z,11.11
2018-03-11T02:49:41.844Z,11.11
2018-03-11T02:52:09.420Z,11.09
2018-03-11T02:54:36.980Z,11.08
2018-03-11T02:57:04.625Z,11.09
2018-03-11T02:59:32.219Z,11.07
2018-03-11T03:01:59.815Z,11.08
2018-03-11T03:04:27.444Z,11.03
2018-03-11T03:06:55.083Z,11.03
2018-03-11T03:09:22.649Z,11.01
2018-03-11T03:11:50.242Z,11.01
2018-03-11T03:14:17.829Z,10.99
2018-03-11T03:16:45.442Z,10.96
2018-03-11T03:19:13.009Z,10.95
2018-03-11T03:21:40.614Z,10.92
2018-03-11T03:24:08.254Z,10.89
2018-03-11T03:26:35.846Z,10.85
2018-03-11T03:29:03.470Z,10.82
2018-03-11T03:31:31.081Z,10.77
2018-03-11T03:33:58.671Z,10.73
2018-03-11T03:36:26.325Z,10.71
2018-03-11T03:38:53.899Z,10.67
2018-03-11T03:41:21.464Z,10.65
2018-03-11T03:43:49.062Z,10.64
2018-03-11T03:46:16.639Z,10.61
2018-03-11T03:48:44.389Z,10.58
2018-03-11T03:51:12.032Z,10.58
2018-03-11T03:53:39.641Z,10.60
2018-03-11T03:56:07.270Z,10.59
2018-03-11T03:58:35.204Z,10.58
2018-03-11T04:01:03.006Z,10.60
2018-03-11T04:03:30.948Z,10.57
2018-03-11T04:05:58.529Z,10.54
2018-03-11T04:08:26.132Z,10.49
2018-03-11T04:10:54.021Z,10.48
2018-03-11T04:13:21.702Z,10.44
2018-03-11T04:15:49.740Z,10.42
2018-03-11T04:18:17.383Z,10.38
2018-03-11T04:20:45.004Z,10.34
2018-03-11T04:23:12.857Z,10.33
2018-03-11T04:25:40.420Z,10.34
2018-03-11T04:28:08.091Z,10.32
2018-03-11T04:30:35.686Z,10.31
2018-03-11T04:33:03.251Z,10.33
2018-03-11T04:35:30.882Z,10.32
2018-03-11T04:37:58.450Z,10.31
2018-03-11T04:40:26.030Z,10.32
2018-03-11T04:42:53.670Z,10.30
2018-03-11T04:45:21.266Z,10.29
2018-03-11T04:47:48.840Z,10.25
2018-03-11T04:50:16.544Z,10.19
2018-03-11T04:52:44.126Z,10.13
2018-03-11T04:55:11.975Z,10.06
2018-03-11T04:57:39.825Z,10.04
2018-03-11T05:00:07.398Z,10.02
2018-03-11T05:02:34.992Z,10.02
2018-03-11T05:05:02.623Z,10.01
2018-03-11T05:07:30.202Z,9.99
2018-03-11T05:09:57.771Z,9.98
2018-03-11T05:12:25.418Z,9.97
2018-03-11T05:14:53.033Z,9.97
2018-03-11T05:17:20.594Z,9.95
2018-03-11T05:19:48.288Z,9.93
2018-03-11T05:22:15.860Z,9.91
2018-03-11T05:24:43.430Z,9.88
2018-03-11T05:27:11.050Z,9.86
2018-03-11T05:29:38.626Z,9.83
2018-03-11T05:32:06.192Z,9.82
2018-03-11T05:34:33.843Z,9.80
2018-03-11T05:37:01.414Z,9.74
2018-03-11T05:39:28.970Z,9.71
2018-03-11T05:41:56.847Z,9.69
2018-03-11T05:44:24.563Z,9.67
2018-03-11T05:46:52.193Z,9.66
2018-03-11T05:49:19.768Z,9.66
2018-03-11T05:51:47.383Z,9.64
2018-03-11T05:54:15.205Z,9.60
2018-03-11T05:56:42.862Z,9.58
2018-03-11T05:59:10.489Z,9.55
2018-03-11T06:01:38.061Z,9.51
2018-03-11T06:04:05.702Z,9.49
2018-03-11T06:06:33.368Z,9.46
2018-03-11T06:09:00.991Z,9.43
2018-03-11T06:11:28.554Z,9.43
2018-03-11T06:13:56.205Z,9.41
2018-03-11T06:16:23.778Z,9.41
2018-03-11T06:18:51.725Z,9.38
2018-03-11T06:21:19.376Z,9.41
2018-03-11T06:23:46.990Z,9.40
2018-03-11T06:26:14.799Z,9.40
2018-03-11T06:28:42.386Z,9.40
2018-03-11T06:31:09.960Z,9.40
2018-03-11T06:33:37.571Z,9.42
2018-03-11T06:36:05.468Z,9.45
2018-03-11T06:38:33.028Z,9.46
2018-03-11T06:41:00.622Z,9.51
2018-03-11T06:43:28.187Z,9.54
2018-03-11T06:45:55.822Z,9.56
2018-03-11T06:48:23.463Z,9.57
2018-03-11T06:50:51.043Z,9.58
2018-03-11T06:53:18.678Z,9.60
2018-03-11T06:55:46.249Z,9.61
2018-03-11T06:58:13.873Z,9.64
2018-03-11T07:00:41.504Z,9.64
2018-03-11T07:03:09.079Z,9.66
2018-03-11T07:05:36.632Z,9.71
2018-03-11T07:08:04.244Z,9.73
2018-03-11T07:10:31.825Z,9.74
2018-03-11T07:12:59.392Z,9.76
2018-03-11T07:15:26.996Z,9.80
2018-03-11T07:17:54.825Z,9.82
2018-03-11T07:20:22.456Z,9.84
2018-03-11T07:22:50.005Z,9.86
2018-03-11T07:25:17.633Z,9.89
2018-03-11T07:27:45.215Z,9.95
2018-03-11T07:30:12.898Z,9.97
2018-03-11T07:32:40.772Z,10.03
2018-03-11T07:35:08.600Z,10.08
2018-03-11T07:37:36.198Z,10.13
2018-03-11T07:40:03.801Z,10.17
2018-03-11T07:42:31.436Z,10.21
2018-03-11T07:44:59.018Z,10.27
2018-03-11T07:47:26.606Z,10.32
2018-03-11T07:49:54.514Z,10.39
2018-03-11T07:52:22.086Z,10.44
2018-03-11T07:54:49.648Z,10.55
2018-03-11T07:57:17.494Z,10.60
2018-03-11T07:59:45.475Z,10.66
2018-03-11T08:02:13.302Z,10.74
2018-03-11T08:04:40.958Z,10.79
2018-03-11T08:07:09.670Z,10.87
2018-03-11T08:09:37.559Z,10.96
2018-03-11T08:12:05.252Z,11.05
2018-03-11T08:14:32.941Z,11.11
2018-03-11T08:17:00.564Z,11.17
2018-03-11T08:19:28.185Z,11.22
2018-03-11T08:21:55.946Z,11.28
2018-03-11T08:24:23.849Z,11.34
2018-03-11T08:26:51.425Z,11.43
2018-03-11T08:29:19.262Z,11.50
2018-03-11T08:31:46.906Z,11.58
2018-03-11T08:34:14.548Z,11.63
2018-03-11T08:36:42.196Z,11.67
2018-03-11T08:39:09.809Z,11.70
2018-03-11T08:41:37.380Z,11.77
2018-03-11T08:44:05.024Z,11.80
2018-03-11T08:46:32.604Z,11.79
2018-03-11T08:49:00.179Z,11.85
2018-03-11T08:51:27.783Z,11.91
2018-03-11T08:53:55.368Z,11.95
2018-03-11T08:56:23.292Z,11.99
2018-03-11T08:58:50.855Z,12.06
2018-03-11T09:01:18.449Z,12.17
2018-03-11T09:03:46.220Z,12.22
2018-03-11T09:06:14.183Z,12.33
2018-03-11T09:08:41.838Z,12.38
2018-03-11T09:11:09.444Z,12.46
2018-03-11T09:13:37.007Z,12.56
2018-03-11T09:16:04.651Z,12.61
2018-03-11T09:18:32.231Z,12.66
2018-03-11T09:20:59.820Z,12.69
2018-03-11T09:23:27.468Z,12.72
2018-03-11T09:25:55.088Z,12.76
2018-03-11T09:28:22.658Z,12.75
2018-03-11T09:30:50.275Z,12.77
2018-03-11T09:33:17.860Z,12.78
2018-03-11T09:35:48.573Z,12.75
2018-03-11T09:38:16.466Z,12.74
2018-03-11T09:40:44.090Z,12.78
2018-03-11T09:43:11.688Z,12.79
2018-03-11T09:45:39.351Z,12.81
2018-03-11T09:48:06.998Z,12.82
2018-03-11T09:50:34.586Z,12.77
2018-03-11T09:53:02.555Z,12.74
2018-03-11T09:55:30.125Z,12.76
2018-03-11T09:57:57.778Z,12.74
2018-03-11T10:00:25.408Z,12.70
2018-03-11T10:02:53.072Z,12.68
2018-03-11T10:05:20.643Z,12.68
2018-03-11T10:07:48.276Z,12.69
2018-03-11T10:10:16.180Z,12.66
2018-03-11T10:12:43.780Z,12.67
2018-03-11T10:15:11.392Z,12.67
2018-03-11T10:17:38.979Z,12.69
2018-03-11T10:20:06.560Z,12.72
2018-03-11T10:22:34.192Z,12.73
2018-03-11T10:25:01.785Z,12.74
2018-03-11T10:27:29.650Z,12.72
2018-03-11T10:29:57.225Z,12.75
2018-03-11T10:32:25.030Z,12.76
2018-03-11T10:34:52.645Z,12.79
2018-03-11T10:37:20.305Z,12.83
2018-03-11T10:39:47.884Z,12.91
2018-03-11T10:42:15.477Z,12.92
2018-03-11T10:44:43.128Z,12.95
2018-03-11T10:47:11.867Z,12.99
2018-03-11T10:49:39.703Z,12.98
2018-03-11T10:52:07.375Z,12.98
2018-03-11T10:54:35.198Z,12.99
2018-03-11T10:57:02.807Z,13.02
2018-03-11T10:59:30.456Z,13.05
2018-03-11T11:02:01.852Z,13.06
2018-03-11T11:04:34.398Z,13.04
2018-03-11T11:07:01.969Z,13.05
2018-03-11T11:09:29.680Z,13.06
2018-03-11T11:11:57.578Z,13.07
2018-03-11T11:14:25.162Z,13.07
2018-03-11T11:16:52.806Z,13.12
2018-03-11T11:19:20.411Z,13.12
2018-03-11T11:21:48.027Z,13.11
2018-03-11T11:24:15.676Z,13.09
2018-03-11T11:26:45.512Z,13.10
2018-03-11T11:29:13.080Z,13.12
2018-03-11T11:31:40.731Z,13.12
2018-03-11T11:34:08.344Z,13.14
2018-03-11T11:36:35.925Z,13.20
2018-03-11T11:39:03.853Z,13.22
2018-03-11T11:41:32.528Z,13.22
2018-03-11T11:44:00.171Z,13.25
2018-03-11T11:46:27.758Z,13.30
2018-03-11T11:48:55.572Z,13.32
2018-03-11T11:51:23.194Z,13.37
2018-03-11T11:53:51.102Z,13.38
2018-03-11T11:56:18.718Z,13.41
2018-03-11T11:58:46.306Z,13.47
2018-03-11T12:01:13.924Z,13.50
2018-03-11T12:03:41.525Z,13.56
2018-03-11T12:06:09.150Z,13.65
2018-03-11T12:08:36.780Z,13.70
2018-03-11T12:11:04.493Z,13.75
2018-03-11T12:13:32.143Z,13.83
2018-03-11T12:15:59.826Z,13.95
2018-03-11T12:18:27.468Z,14.03
2018-03-11T12:20:55.114Z,14.06
2018-03-11T12:23:22.720Z,14.09
2018-03-11T12:25:50.363Z,14.14
2018-03-11T12:28:18.389Z,14.19
2018-03-11T12:30:45.973Z,14.19
2018-03-11T12:33:13.571Z,14.19
2018-03-11T12:35:41.169Z,14.20
2018-03-11T12:38:08.797Z,14.20
2018-03-11T12:40:36.363Z,14.20
2018-03-11T12:43:03.933Z,14.21
2018-03-11T12:45:31.606Z,14.22
2018-03-11T12:47:59.200Z,14.21
2018-03-11T12:50:27.036Z,14.21
2018-03-11T12:52:54.647Z,14.25
2018-03-11T12:55:22.203Z,14.24
2018-03-11T12:57:49.785Z,14.24
2018-03-11T13:00:17.407Z,14.25
2018-03-11T13:02:45.351Z,14.22
2018-03-11T13:05:12.959Z,14.24
2018-03-11T13:07:40.555Z,14.24
2018-03-11T13:10:08.156Z,14.25
2018-03-11T13:12:35.828Z,14.25
2018-03-11T13:15:03.416Z,14.23
2018-03-11T13:17:31.008Z,14.22
2018-03-11T13:20:10.601Z,14.20
2018-03-11T13:22:38.530Z,14.20
2018-03-11T13:25:06.170Z,14.21
2018-03-11T13:27:34.163Z,14.19
2018-03-11T13:30:01.735Z,14.19
2018-03-11T13:32:41.200Z,14.17
2018-03-11T13:35:11.834Z,14.17
2018-03-11T13:37:39.447Z,14.19
2018-03-11T13:40:19.197Z,14.19
2018-03-11T13:42:49.393Z,14.20
2018-03-11T13:45:38.144Z,14.21
2018-03-11T13:48:05.718Z,14.22
2018-03-11T13:50:33.367Z,14.20
2018-03-11T13:53:12.642Z,14.20
2018-03-11T13:55:40.662Z,14.19
2018-03-11T13:58:25.645Z,14.22
2018-03-11T14:00:53.212Z,14.24
2018-03-11T14:03:20.790Z,14.26
2018-03-11T14:05:48.414Z,14.31
2018-03-11T14:08:16.002Z,14.35
2018-03-11T14:10:43.589Z,14.38
2018-03-11T14:13:11.200Z,14.39
2018-03-11T14:15:38.835Z,14.42
2018-03-11T14:18:06.429Z,14.45
2018-03-11T14:20:34.088Z,14.49
2018-03-11T14:23:01.662Z,14.54
2018-03-11T14:25:29.280Z,14.55
2018-03-11T14:27:56.955Z,14.54
2018-03-11T14:30:24.542Z,14.55
2018-03-11T14:32:52.187Z,14.57
2018-03-11T14:35:19.803Z,14.58
2018-03-11T14:37:47.388Z,14.55
2018-03-11T14:40:15.011Z,14.54
2018-03-11T14:42:42.652Z,14.53
2018-03-11T14:45:10.266Z,14.45
2018-03-11T14:47:37.863Z,14.44
2018-03-11T14:50:05.763Z,14.43
2018-03-11T14:52:33.385Z,14.37
2018-03-11T14:55:01.056Z,14.37
2018-03-11T14:57:28.651Z,14.35
2018-03-11T14:59:56.235Z,14.34
2018-03-11T15:02:23.868Z,14.36
2018-03-11T15:04:51.495Z,14.35
2018-03-11T15:07:19.505Z,14.30
2018-03-11T15:09:47.142Z,14.29
2018-03-11T15:12:14.737Z,14.28
2018-03-11T15:14:42.384Z,14.24
2018-03-11T15:17:10.001Z,14.20
2018-03-11T15:19:37.638Z,14.22
2018-03-11T15:22:05.429Z,14.24
2018-03-11T15:24:33.064Z,14.20
2018-03-11T15:27:00.696Z,14.18
2018-03-11T15:29:28.545Z,14.18
2018-03-11T15:31:56.164Z,14.17
2018-03-11T15:34:23.934Z,14.17
2018-03-11T15:36:51.603Z,14.20
2018-03-11T15:39:19.213Z,14.18
2018-03-11T15:41:46.819Z,14.17
2018-03-11T15:44:14.479Z,14.17
2018-03-11T15:46:42.056Z,14.15
2018-03-11T15:49:09.814Z,14.16
2018-03-11T15:51:37.440Z,14.14
2018-03-11T15:54:05.012Z,14.13
2018-03-11T15:56:32.583Z,14.12
2018-03-11T15:59:00.219Z,14.13
2018-03-11T16:01:27.794Z,14.13
2018-03-11T16:03:55.443Z,14.13
2018-03-11T16:06:23.003Z,14.10
2018-03-11T16:08:50.569Z,14.09
2018-03-11T16:11:18.589Z,14.04
2018-03-11T16:13:47.666Z,14.02
2018-03-11T16:16:15.262Z,14.00
2018-03-11T16:18:42.902Z,14.00
2018-03-11T16:21:10.605Z,13.97
2018-03-11T16:23:38.193Z,13.95
2018-03-11T16:26:05.792Z,13.92
2018-03-11T16:28:33.482Z,13.91
2018-03-11T16:31:01.032Z,13.88
2018-03-11T16:33:28.647Z,13.88
2018-03-11T16:35:56.579Z,13.86
2018-03-11T16:38:24.150Z,13.82
2018-03-11T16:40:51.791Z,13.78
2018-03-11T16:43:19.391Z,13.75
2018-03-11T16:45:47.026Z,13.72
2018-03-11T16:48:14.651Z,13.70
2018-03-11T16:50:42.215Z,13.68
2018-03-11T16:53:09.911Z,13.62
2018-03-11T16:55:37.497Z,13.57
2018-03-11T16:58:05.085Z,13.49
2018-03-11T17:00:32.697Z,13.41
2018-03-11T17:03:00.457Z,13.40
2018-03-11T17:05:28.053Z,13.35
2018-03-11T17:07:55.727Z,13.31
2018-03-11T17:10:23.401Z,13.25
2018-03-11T17:12:51.005Z,13.19
2018-03-11T17:15:18.594Z,13.15
2018-03-11T17:17:46.285Z,13.13
2018-03-11T17:20:13.923Z,13.08
2018-03-11T17:22:41.519Z,13.03
2018-03-11T17:25:09.168Z,12.98
2018-03-11T17:27:36.815Z,12.92
2018-03-11T17:30:04.433Z,12.87
2018-03-11T17:32:33.095Z,12.78
2018-03-11T17:35:00.758Z,12.72
2018-03-11T17:37:28.358Z,12.66
2018-03-11T17:39:56.185Z,12.63
2018-03-11T17:42:23.794Z,12.61
2018-03-11T17:44:51.598Z,12.58
2018-03-11T17:47:19.534Z,12.54
2018-03-11T17:49:47.129Z,12.48
2018-03-11T17:52:29.063Z,12.44
2018-03-11T17:54:56.675Z,12.38
2018-03-11T17:57:24.285Z,12.31
2018-03-11T17:59:51.908Z,12.26
2018-03-11T18:02:19.525Z,12.20
2018-03-11T18:04:47.310Z,12.13
2018-03-11T18:07:15.181Z,12.06
2018-03-11T18:09:42.981Z,12.00
2018-03-11T18:12:10.678Z,11.93
2018-03-11T18:14:38.288Z,11.85
2018-03-11T18:17:05.912Z,11.79
2018-03-11T18:19:33.487Z,11.74
2018-03-11T18:22:01.127Z,11.69
2018-03-11T18:24:28.995Z,11.65
2018-03-11T18:26:56.648Z,11.59
2018-03-11T18:29:24.222Z,11.53
2018-03-11T18:31:51.854Z,11.46
2018-03-11T18:34:19.730Z,11.40
2018-03-11T18:36:47.357Z,11.34
2018-03-11T18:39:14.946Z,11.29
2018-03-11T18:41:42.634Z,11.25
2018-03-11T18:44:10.189Z,11.21
2018-03-11T18:46:38.141Z,11.19
2018-03-11T18:49:05.718Z,11.17
2018-03-11T18:51:33.574Z,11.13
2018-03-11T18:54:01.205Z,11.09
2018-03-11T18:56:28.820Z,11.05
2018-03-11T18:58:56.476Z,11.01
2018-03-11T19:01:24.136Z,10.96
2018-03-11T19:03:52.092Z,10.91
2018-03-11T19:06:19.728Z,10.88
2018-03-11T19:08:47.400Z,10.82
2018-03-11T19:11:15.011Z,10.75
2018-03-11T19:13:42.621Z,10.70
2018-03-11T19:16:10.271Z,10.70
2018-03-11T19:18:37.888Z,10.71
2018-03-11T19:21:05.499Z,10.71
2018-03-11T19:23:33.116Z,10.73
2018-03-11T19:26:00.692Z,10.75
2018-03-11T19:28:28.321Z,10.79
2018-03-11T19:30:59.876Z,10.84
2018-03-11T19:33:27.489Z,10.86
2018-03-11T19:35:55.121Z,10.90
2018-03-11T19:38:22.747Z,10.90
2018-03-11T19:40:50.342Z,10.88
2018-03-11T19:43:17.943Z,10.87
2018-03-11T19:46:04.484Z,10.86
2018-03-11T19:48:32.344Z,10.83
2018-03-11T19:51:01.293Z,10.80
2018-03-11T19:53:29.789Z,10.76
2018-03-11T19:55:57.497Z,10.74
2018-03-11T19:58:25.123Z,10.69
2018-03-11T20:00:54.986Z,10.66
2018-03-11T20:03:22.944Z,10.61
2018-03-11T20:05:50.518Z,10.58
2018-03-11T20:08:18.107Z,10.53
2018-03-11T20:10:45.733Z,10.46
2018-03-11T20:13:13.371Z,10.42
2018-03-11T20:15:40.962Z,10.37
2018-03-11T20:18:08.891Z,10.33
2018-03-11T20:20:36.755Z,10.29
2018-03-11T20:23:04.342Z,10.25
2018-03-11T20:25:31.984Z,10.23
2018-03-11T20:28:01.465Z,10.23
2018-03-11T20:30:41.324Z,10.22
2018-03-11T20:33:08.996Z,10.22
2018-03-11T20:35:36.600Z,10.20
2018-03-11T20:38:04.273Z,10.20
2018-03-11T20:40:32.193Z,10.17
2018-03-11T20:42:59.868Z,10.14
2018-03-11T20:45:27.815Z,10.12
2018-03-11T20:47:55.446Z,10.09
2018-03-11T20:50:23.682Z,10.04
2018-03-11T20:52:51.795Z,10.03
2018-03-11T20:55:19.520Z,10.00
2018-03-11T20:57:47.137Z,9.97
2018-03-11T21:00:16.916Z,9.96
2018-03-11T21:02:44.751Z,9.89
2018-03-11T21:05:12.344Z,9.86
2018-03-11T21:07:39.977Z,9.84
2018-03-11T21:10:08.137Z,9.80
2018-03-11T21:12:35.814Z,9.77
2018-03-11T21:15:03.464Z,9.74
2018-03-11T21:17:31.269Z,9.71
2018-03-11T21:19:58.857Z,9.69
2018-03-11T21:22:26.489Z,9.65
2018-03-11T21:24:54.080Z,9.62
2018-03-11T21:27:21.675Z,9.57
2018-03-11T21:29:51.535Z,9.55
2018-03-11T21:32:19.327Z,9.49
2018-03-11T21:34:47.115Z,9.45
2018-03-11T21:37:14.760Z,9.40
2018-03-11T21:39:42.340Z,9.35
2018-03-11T21:42:10.094Z,9.31
2018-03-11T21:44:37.729Z,9.27
2018-03-11T21:47:05.325Z,9.27
2018-03-11T21:49:32.975Z,9.25
2018-03-11T21:52:00.618Z,9.23
2018-03-11T21:54:28.206Z,9.20
2018-03-11T21:56:55.770Z,9.17
2018-03-11T21:59:23.439Z,9.14
2018-03-11T22:01:51.042Z,9.12
2018-03-11T22:04:19.125Z,9.09
2018-03-11T22:06:46.791Z,9.08
2018-03-11T22:09:14.370Z,9.04
2018-03-11T22:11:42.004Z,9.01
2018-03-11T22:14:09.631Z,9.00
2018-03-11T22:16:37.203Z,8.98
2018-03-11T22:19:04.821Z,8.95
2018-03-11T22:21:32.417Z,8.92
2018-03-11T22:24:02.360Z,8.89
2018-03-11T22:26:32.044Z,8.88
2018-03-11T22:28:59.912Z,8.87
2018-03-11T22:31:28.400Z,8.86
2018-03-11T22:33:56.132Z,8.84
2018-03-11T22:36:24.041Z,8.81
2018-03-11T22:38:51.699Z,8.77
2018-03-11T22:41:19.276Z,8.74
2018-03-11T22:43:47.277Z,8.68
2018-03-11T22:46:15.143Z,8.64
2018-03-11T22:48:42.932Z,8.64
2018-03-11T22:51:10.706Z,8.65
2018-03-11T22:53:38.357Z,8.65
2018-03-11T22:56:06.046Z,8.62
2018-03-11T22:58:33.629Z,8.58
2018-03-11T23:01:01.338Z,8.56
2018-03-11T23:03:29.142Z,8.56
2018-03-11T23:05:57.030Z,8.51
2018-03-11T23:08:24.614Z,8.48
2018-03-11T23:10:52.224Z,8.46
2018-03-11T23:13:19.841Z,8.41
2018-03-11T23:15:47.420Z,8.38
2018-03-11T23:18:15.002Z,8.37
2018-03-11T23:20:42.576Z,8.36
2018-03-11T23:23:10.183Z,8.35
2018-03-11T23:25:37.823Z,8.33
2018-03-11T23:28:05.417Z,8.33
2018-03-11T23:30:33.029Z,8.32
2018-03-11T23:33:00.647Z,8.29
2018-03-11T23:35:28.221Z,8.25
2018-03-11T23:37:55.823Z,8.24
2018-03-11T23:40:23.465Z,8.21
2018-03-11T23:42:51.129Z,8.20
2018-03-11T23:45:18.727Z,8.16
2018-03-11T23:47:46.365Z,8.14
2018-03-11T23:50:14.008Z,8.12
2018-03-11T23:52:41.932Z,8.10
2018-03-11T23:55:09.560Z,8.07
2018-03-11T23:57:37.200Z,8.03
